Bryce Canyon Airport
KBCE : now visible

Airfield :











YOU CAN JOIN US ON...

 
LOGIN :

Register | Disclaimer

   EN    FR    IT 

 









Legend :    VFR   Marginal VFR   IFR   Intensive IFR   Very Intensive IFR
Visi :
Ceiling :
>= 8 km
>= 3000ft
5 to 8 km
1000 to 3000 ft
1500m to 5 km
500 to 1000 ft
800 to 1500m
200 to 500 ft
< 800m
< 200 ft
Symbols :   Thunderstorms  Fog  Heavy snow  Heavy precipitations  Wind > 20 kt







- Airport Elevation : 7590 ft


KBCE - Bryce Canyon

CURRENT METAR :
  • 210353Z AUTO 17005KT 10SM CLR 03/M07 A3014 RMK AO2 SLP135 T00331072

EXPIRED METARs :
  • 210253Z AUTO 31006KT 10SM CLR 08/M06 A3013 RMK AO2 SLP124 T00781061 53007
  • 210153Z AUTO 32005KT 10SM CLR 09/M06 A3012 RMK AO2 SLP127 T00941061

TAF KBCE
Valid from the 21 at 00:00 until the 22 at 00:00 UTC


202325Z 2100/2124 31014G22KT P6SM SKC
FM210200 31006KT P6SM SKC
FM211700 27010KT P6SM SKC
No reported NOTAMs for that airfield.



MET'MAP, your aeronautical weather chart ! - Copyright ORBIFLY December 2007 - Disclaimer

ORBIFLY MET'MAP TEAM :

Programming & Development : Alexandra Zaïnal
Concept & Development : Baudouin d'Aumeries
Co-Development & Prog : Marc-Olivier Méhu
Technical & hardware support : Manuel Goepfert

Contact : metmap@orbifly.com




SOURCES & CREDITS :

   NOAA       Earth
Advisory